Time,TemperatureF,DewpointF,PressureIn,WindDirection,WindDirectionDegrees,WindSpeedMPH,WindSpeedGustMPH,Humidity,HourlyPrecipIn,Conditions,Clouds,dailyrainin,SolarRadiationWatts/m^2,SoftwareType,DateUTC
2013-07-18 00:01:00,74.8,73.0,30.09,ESE,104,1.0,3.0,94,0.03,,,0.39,0.0,meteohub,2013-07-18 04:01:00,
2013-07-18 00:06:00,74.8,73.0,30.09,East,90,1.0,5.0,94,0.02,,,0.00,0.0,meteohub,2013-07-18 04:06:00,
2013-07-18 00:11:00,75.0,73.2,30.09,East,88,3.0,5.0,94,0.01,,,0.00,0.0,meteohub,2013-07-18 04:11:00,
2013-07-18 00:16:00,75.2,73.4,30.09,East,88,1.0,5.0,94,0.01,,,0.00,0.0,meteohub,2013-07-18 04:16:00,
2013-07-18 00:21:00,75.2,73.4,30.09,East,88,2.0,5.0,94,0.01,,,0.00,0.0,meteohub,2013-07-18 04:21:00,
2013-07-18 00:26:00,75.4,73.6,30.09,East,90,6.0,6.0,94,0.00,,,0.00,0.0,meteohub,2013-07-18 04:26:00,
2013-07-18 00:31:00,75.7,73.9,30.09,ESE,103,8.0,15.0,94,0.00,,,0.00,0.0,meteohub,2013-07-18 04:31:00,
2013-07-18 00:36:00,75.9,74.1,30.09,ESE,113,4.0,16.0,94,0.01,,,0.01,0.0,meteohub,2013-07-18 04:36:00,
2013-07-18 00:41:00,75.7,73.9,30.09,ESE,123,10.0,16.0,94,0.02,,,0.02,0.0,meteohub,2013-07-18 04:41:00,
2013-07-18 00:47:00,74.8,73.0,30.09,SE,137,3.0,10.0,94,0.03,,,0.03,0.0,meteohub,2013-07-18 04:47:00,
2013-07-18 00:52:00,74.8,73.0,30.09,SE,126,3.0,10.0,94,0.04,,,0.04,0.0,meteohub,2013-07-18 04:52:00,
2013-07-18 00:57:00,74.7,72.9,30.09,SE,134,3.0,10.0,94,0.05,,,0.05,0.0,meteohub,2013-07-18 04:57:00,
2013-07-18 01:02:00,74.5,73.0,30.09,SE,139,0.0,9.0,95,0.07,,,0.07,0.0,meteohub,2013-07-18 05:02:00,
2013-07-18 01:07:00,74.5,73.0,30.08,SE,139,0.0,8.0,95,0.07,,,0.07,0.0,meteohub,2013-07-18 05:07:00,
2013-07-18 01:12:00,74.7,73.2,30.08,SE,139,1.0,5.0,95,0.09,,,0.09,0.0,meteohub,2013-07-18 05:12:00,
2013-07-18 01:17:00,74.5,73.0,30.08,SE,139,0.0,3.0,95,0.10,,,0.10,0.0,meteohub,2013-07-18 05:17:00,
2013-07-18 01:22:00,74.5,73.0,30.08,SE,139,1.0,2.0,95,0.11,,,0.11,0.0,meteohub,2013-07-18 05:22:00,
2013-07-18 01:27:00,74.5,73.0,30.09,SE,139,1.0,2.0,95,0.12,,,0.12,0.0,meteohub,2013-07-18 05:27:00,
2013-07-18 01:32:00,74.5,73.2,30.09,SE,139,2.0,2.0,96,0.14,,,0.13,0.0,meteohub,2013-07-18 05:32:00,
2013-07-18 01:37:00,74.5,73.2,30.09,SSE,148,1.0,4.0,96,0.13,,,0.14,0.0,meteohub,2013-07-18 05:37:00,
2013-07-18 01:42:00,74.5,73.2,30.09,SE,146,1.0,4.0,96,0.14,,,0.16,0.0,meteohub,2013-07-18 05:42:00,
2013-07-18 01:47:00,74.5,73.2,30.08,SE,146,0.0,4.0,96,0.13,,,0.16,0.0,meteohub,2013-07-18 05:47:00,
2013-07-18 01:52:00,74.7,73.4,30.09,SE,146,1.0,3.0,96,0.14,,,0.18,0.0,meteohub,2013-07-18 05:52:00,
2013-07-18 01:57:00,74.7,73.4,30.09,ESE,105,4.0,11.0,96,0.13,,,0.19,0.0,meteohub,2013-07-18 05:57:00,
2013-07-18 02:02:00,74.7,73.2,30.08,East,94,7.0,11.0,95,0.12,,,0.19,0.0,meteohub,2013-07-18 06:02:00,
2013-07-18 02:07:00,74.7,73.2,30.08,SE,125,10.0,13.0,95,0.13,,,0.21,0.0,meteohub,2013-07-18 06:07:00,
2013-07-18 02:12:00,74.7,73.2,30.08,SE,126,8.0,13.0,95,0.13,,,0.22,0.0,meteohub,2013-07-18 06:12:00,
2013-07-18 02:17:00,74.5,73.0,30.08,ESE,107,4.0,13.0,95,0.13,,,0.23,0.0,meteohub,2013-07-18 06:17:00,
2013-07-18 02:22:00,74.5,73.0,30.08,ESE,105,5.0,12.0,95,0.12,,,0.23,0.0,meteohub,2013-07-18 06:22:00,
2013-07-18 02:27:00,74.5,73.0,30.08,SE,126,4.0,12.0,95,0.12,,,0.25,0.0,meteohub,2013-07-18 06:27:00,
2013-07-18 02:32:00,74.5,73.0,30.08,SE,142,2.0,10.0,95,0.11,,,0.25,0.0,meteohub,2013-07-18 06:32:00,
2013-07-18 02:37:00,74.3,72.9,30.07,SSE,153,3.0,10.0,95,0.11,,,0.26,0.0,meteohub,2013-07-18 06:37:00,
2013-07-18 02:42:00,73.9,72.5,30.07,SSE,161,3.0,9.0,95,0.12,,,0.28,0.0,meteohub,2013-07-18 06:42:00,
2013-07-18 02:47:00,73.9,72.7,30.07,SE,143,4.0,6.0,96,0.11,,,0.28,0.0,meteohub,2013-07-18 06:47:00,
2013-07-18 02:52:00,73.9,72.7,30.07,SE,138,4.0,6.0,96,0.11,,,0.29,0.0,meteohub,2013-07-18 06:52:00,
2013-07-18 02:57:00,73.9,72.7,30.07,ESE,123,2.0,7.0,96,0.12,,,0.31,0.0,meteohub,2013-07-18 06:57:00,
2013-07-18 03:02:00,74.1,72.9,30.06,East,101,5.0,7.0,96,0.11,,,0.31,0.0,meteohub,2013-07-18 07:02:00,
2013-07-18 03:07:00,74.1,72.9,30.06,ESE,109,4.0,7.0,96,0.11,,,0.32,0.0,meteohub,2013-07-18 07:07:00,
2013-07-18 03:12:00,74.1,72.9,30.06,East,100,3.0,7.0,96,0.12,,,0.33,0.0,meteohub,2013-07-18 07:12:00,
2013-07-18 03:17:00,74.1,72.9,30.07,ESE,107,3.0,6.0,96,0.11,,,0.34,0.0,meteohub,2013-07-18 07:17:00,
2013-07-18 03:22:00,73.9,72.7,30.06,ESE,106,1.0,6.0,96,0.12,,,0.36,0.0,meteohub,2013-07-18 07:22:00,
2013-07-18 03:27:00,74.1,72.9,30.06,ESE,105,2.0,6.0,96,0.11,,,0.36,0.0,meteohub,2013-07-18 07:27:00,
2013-07-18 03:32:00,73.9,72.7,30.06,ESE,105,2.0,5.0,96,0.12,,,0.38,0.0,meteohub,2013-07-18 07:32:00,
2013-07-18 03:37:00,73.9,72.7,30.07,East,92,2.0,5.0,96,0.12,,,0.39,0.0,meteohub,2013-07-18 07:37:00,
2013-07-18 03:42:00,73.9,72.7,30.07,East,92,2.0,5.0,96,0.11,,,0.39,0.0,meteohub,2013-07-18 07:42:00,
2013-07-18 03:47:00,74.1,72.9,30.07,East,92,1.0,5.0,96,0.12,,,0.41,0.0,meteohub,2013-07-18 07:47:00,
2013-07-18 03:52:00,74.1,72.9,30.07,East,88,1.0,6.0,96,0.11,,,0.41,0.0,meteohub,2013-07-18 07:52:00,
2013-07-18 03:57:00,74.1,72.9,30.07,ESE,103,3.0,6.0,96,0.12,,,0.43,0.0,meteohub,2013-07-18 07:57:00,
2013-07-18 04:02:00,74.1,72.9,30.06,ESE,103,2.0,6.0,96,0.12,,,0.44,0.0,meteohub,2013-07-18 08:02:00,
2013-07-18 04:07:00,74.1,72.9,30.06,East,94,2.0,5.0,96,0.12,,,0.45,0.0,meteohub,2013-07-18 08:07:00,
2013-07-18 04:12:00,74.1,72.9,30.06,East,94,2.0,7.0,96,0.12,,,0.46,0.0,meteohub,2013-07-18 08:12:00,
2013-07-18 04:18:00,74.1,72.9,30.06,East,94,5.0,7.0,96,0.12,,,0.47,0.0,meteohub,2013-07-18 08:18:00,
2013-07-18 04:23:00,73.9,73.0,30.06,East,92,2.0,6.0,97,0.12,,,0.48,0.0,meteohub,2013-07-18 08:23:00,
2013-07-18 04:28:00,73.9,73.0,30.06,East,83,3.0,5.0,97,0.12,,,0.49,0.0,meteohub,2013-07-18 08:28:00,
2013-07-18 04:33:00,73.9,73.0,30.06,East,82,1.0,5.0,97,0.12,,,0.50,0.0,meteohub,2013-07-18 08:33:00,
2013-07-18 04:38:00,73.9,73.0,30.06,East,82,1.0,5.0,97,0.11,,,0.50,0.0,meteohub,2013-07-18 08:38:00,
2013-07-18 04:43:00,73.9,73.0,30.06,East,83,1.0,5.0,97,0.11,,,0.51,0.0,meteohub,2013-07-18 08:43:00,
2013-07-18 04:48:00,73.9,73.0,30.06,East,83,2.0,5.0,97,0.10,,,0.51,0.0,meteohub,2013-07-18 08:48:00,
2013-07-18 04:53:00,73.9,73.0,30.06,East,95,3.0,5.0,97,0.10,,,0.52,0.0,meteohub,2013-07-18 08:53:00,
2013-07-18 04:58:00,73.9,73.0,30.06,East,88,3.0,5.0,97,0.09,,,0.52,0.0,meteohub,2013-07-18 08:58:00,
2013-07-18 05:03:00,73.9,73.0,30.06,East,88,5.0,5.0,97,0.08,,,0.52,0.0,meteohub,2013-07-18 09:03:00,
2013-07-18 05:08:00,73.9,73.0,30.06,East,84,2.0,6.0,97,0.07,,,0.52,0.0,meteohub,2013-07-18 09:08:00,
2013-07-18 05:13:00,73.9,73.0,30.06,East,80,2.0,6.0,97,0.06,,,0.52,0.0,meteohub,2013-07-18 09:13:00,
2013-07-18 05:18:00,74.1,73.2,30.06,ENE,76,3.0,6.0,97,0.05,,,0.52,0.0,meteohub,2013-07-18 09:18:00,
2013-07-18 05:23:00,74.1,73.2,30.06,ENE,73,3.0,6.0,97,0.04,,,0.52,0.0,meteohub,2013-07-18 09:23:00,
2013-07-18 05:28:00,74.1,73.2,30.06,ENE,74,2.0,6.0,97,0.03,,,0.52,0.0,meteohub,2013-07-18 09:28:00,
2013-07-18 05:33:00,74.1,73.2,30.06,ENE,74,2.0,5.0,97,0.02,,,0.52,0.0,meteohub,2013-07-18 09:33:00,
2013-07-18 05:38:00,74.1,73.2,30.06,East,80,1.0,5.0,97,0.01,,,0.52,0.0,meteohub,2013-07-18 09:38:00,
2013-07-18 05:43:00,74.1,73.2,30.07,East,86,2.0,4.0,97,0.01,,,0.52,0.0,meteohub,2013-07-18 09:43:00,
2013-07-18 05:48:00,74.1,73.2,30.07,East,86,3.0,5.0,97,0.00,,,0.52,0.0,meteohub,2013-07-18 09:48:00,
2013-07-18 05:53:00,74.1,73.2,30.07,East,86,1.0,5.0,97,0.00,,,0.52,0.0,meteohub,2013-07-18 09:53:00,
2013-07-18 05:58:00,74.1,73.2,30.08,East,86,1.0,5.0,97,0.00,,,0.52,0.0,meteohub,2013-07-18 09:58:00,
2013-07-18 06:03:00,74.1,73.2,30.08,East,86,0.0,5.0,97,0.00,,,0.52,0.0,meteohub,2013-07-18 10:03:00,
2013-07-18 06:08:00,74.1,73.2,30.08,East,86,1.0,5.0,97,0.00,,,0.52,0.0,meteohub,2013-07-18 10:08:00,
2013-07-18 06:13:00,74.1,73.2,30.08,East,86,1.0,3.0,97,0.00,,,0.52,0.0,meteohub,2013-07-18 10:13:00,
2013-07-18 06:18:00,74.1,73.2,30.08,East,86,0.0,3.0,97,0.00,,,0.52,0.0,meteohub,2013-07-18 10:18:00,
2013-07-18 06:23:00,74.1,73.2,30.08,East,86,0.0,3.0,97,0.00,,,0.52,0.0,meteohub,2013-07-18 10:23:00,
2013-07-18 06:28:00,74.1,73.2,30.08,East,86,2.0,3.0,97,0.00,,,0.52,0.0,meteohub,2013-07-18 10:28:00,
2013-07-18 06:33:00,73.9,73.0,30.08,East,86,3.0,3.0,97,0.00,,,0.52,0.0,meteohub,2013-07-18 10:33:00,
2013-07-18 06:39:00,73.9,73.0,30.08,East,86,3.0,3.0,97,0.00,,,0.52,0.0,meteohub,2013-07-18 10:39:00,
2013-07-18 06:44:00,73.9,73.0,30.08,East,86,2.0,5.0,97,0.00,,,0.52,0.0,meteohub,2013-07-18 10:44:00,
2013-07-18 06:49:00,73.9,73.0,30.09,East,86,1.0,5.0,97,0.00,,,0.52,7.0,meteohub,2013-07-18 10:49:00,
2013-07-18 06:54:00,73.9,73.0,30.09,East,86,1.0,5.0,97,0.00,,,0.52,11.0,meteohub,2013-07-18 10:54:00,
2013-07-18 06:59:00,73.9,73.0,30.09,East,86,1.0,3.0,97,0.00,,,0.52,12.0,meteohub,2013-07-18 10:59:00,
2013-07-18 07:04:00,74.1,73.2,30.09,East,86,2.0,3.0,97,0.00,,,0.52,16.0,meteohub,2013-07-18 11:04:00,
2013-07-18 07:09:00,74.1,73.2,30.09,East,86,1.0,2.0,97,0.00,,,0.52,16.0,meteohub,2013-07-18 11:09:00,
2013-07-18 07:14:00,74.1,73.2,30.09,East,86,2.0,3.0,97,0.00,,,0.52,21.0,meteohub,2013-07-18 11:14:00,
2013-07-18 07:19:00,74.3,73.4,30.09,East,87,1.0,3.0,97,0.00,,,0.52,25.0,meteohub,2013-07-18 11:19:00,
2013-07-18 07:24:00,74.3,73.4,30.09,East,87,0.0,3.0,97,0.00,,,0.52,28.0,meteohub,2013-07-18 11:24:00,
2013-07-18 07:29:00,74.5,73.6,30.09,East,87,0.0,3.0,97,0.00,,,0.52,30.0,meteohub,2013-07-18 11:29:00,
2013-07-18 07:34:00,74.7,73.4,30.09,East,87,0.0,3.0,96,0.00,,,0.52,32.0,meteohub,2013-07-18 11:34:00,
2013-07-18 07:39:00,74.7,73.4,30.09,East,87,1.0,3.0,96,0.00,,,0.52,35.0,meteohub,2013-07-18 11:39:00,
2013-07-18 07:44:00,74.8,73.6,30.09,East,87,1.0,2.0,96,0.00,,,0.52,42.0,meteohub,2013-07-18 11:44:00,
2013-07-18 07:49:00,75.0,73.8,30.09,East,87,3.0,3.0,96,0.00,,,0.52,58.0,meteohub,2013-07-18 11:49:00,
2013-07-18 07:54:00,75.4,74.1,30.09,East,96,0.0,3.0,96,0.00,,,0.52,83.0,meteohub,2013-07-18 11:54:00,
2013-07-18 07:59:00,75.7,74.1,30.09,East,96,1.0,3.0,95,0.00,,,0.52,120.0,meteohub,2013-07-18 11:59:00,
2013-07-18 08:04:00,76.1,74.5,30.10,East,96,3.0,5.0,95,0.00,,,0.52,72.0,meteohub,2013-07-18 12:04:00,
2013-07-18 08:09:00,76.3,74.5,30.10,East,96,2.0,5.0,94,0.00,,,0.52,54.0,meteohub,2013-07-18 12:09:00,
2013-07-18 08:14:00,76.5,74.7,30.10,East,96,3.0,5.0,94,0.00,,,0.52,63.0,meteohub,2013-07-18 12:14:00,
2013-07-18 08:19:00,76.6,74.8,30.11,East,95,1.0,5.0,94,0.00,,,0.52,88.0,meteohub,2013-07-18 12:19:00,
2013-07-18 08:24:00,77.0,74.8,30.11,East,95,2.0,5.0,93,0.00,,,0.52,223.0,meteohub,2013-07-18 12:24:00,
2013-07-18 08:29:00,77.4,75.2,30.11,East,94,1.0,5.0,93,0.00,,,0.52,79.0,meteohub,2013-07-18 12:29:00,
2013-07-18 08:34:00,77.7,75.2,30.11,East,101,5.0,7.0,92,0.00,,,0.52,236.0,meteohub,2013-07-18 12:34:00,
2013-07-18 08:39:00,78.1,75.2,30.10,ESE,105,3.0,7.0,91,0.00,,,0.52,253.0,meteohub,2013-07-18 12:39:00,
2013-07-18 08:44:00,78.4,75.6,30.10,East,101,3.0,7.0,91,0.00,,,0.52,246.0,meteohub,2013-07-18 12:44:00,
2013-07-18 08:49:00,78.8,75.6,30.10,ESE,108,3.0,7.0,90,0.00,,,0.52,334.0,meteohub,2013-07-18 12:49:00,
2013-07-18 08:54:00,79.2,75.4,30.10,ESE,111,5.0,7.0,88,0.00,,,0.52,121.0,meteohub,2013-07-18 12:54:00,
2013-07-18 08:59:00,79.5,75.6,30.11,East,101,7.0,9.0,88,0.00,,,0.52,383.0,meteohub,2013-07-18 12:59:00,
2013-07-18 09:04:00,79.9,75.4,30.11,ESE,109,3.0,9.0,86,0.00,,,0.52,336.0,meteohub,2013-07-18 13:04:00,
2013-07-18 09:09:00,80.1,75.6,30.11,ESE,111,4.0,9.0,86,0.00,,,0.52,327.0,meteohub,2013-07-18 13:09:00,
2013-07-18 09:14:00,80.2,75.7,30.12,East,99,6.0,9.0,86,0.00,,,0.52,276.0,meteohub,2013-07-18 13:14:00,
2013-07-18 09:19:00,80.4,75.9,30.12,ESE,103,2.0,9.0,86,0.00,,,0.52,360.0,meteohub,2013-07-18 13:19:00,
2013-07-18 09:24:00,80.8,75.9,30.12,East,88,3.0,9.0,85,0.00,,,0.52,503.0,meteohub,2013-07-18 13:24:00,
2013-07-18 09:29:00,81.3,76.6,30.12,ENE,71,4.0,8.0,86,0.00,,,0.52,390.0,meteohub,2013-07-18 13:29:00,
2013-07-18 09:35:00,81.1,75.9,30.12,East,98,6.0,8.0,84,0.00,,,0.52,211.0,meteohub,2013-07-18 13:35:00,
2013-07-18 09:40:00,81.1,75.9,30.12,ESE,110,5.0,9.0,84,0.00,,,0.52,288.0,meteohub,2013-07-18 13:40:00,
2013-07-18 09:45:00,81.3,76.1,30.12,ESE,117,3.0,10.0,84,0.00,,,0.52,218.0,meteohub,2013-07-18 13:45:00,
2013-07-18 09:50:00,81.1,75.6,30.13,ESE,111,9.0,10.0,83,0.00,,,0.52,283.0,meteohub,2013-07-18 13:50:00,
2013-07-18 09:55:00,81.1,75.6,30.13,ESE,120,8.0,10.0,83,0.00,,,0.52,197.0,meteohub,2013-07-18 13:55:00,
2013-07-18 10:00:00,81.0,75.7,30.12,ESE,114,9.0,10.0,84,0.00,,,0.52,135.0,meteohub,2013-07-18 14:00:00,
2013-07-18 10:05:00,80.8,75.6,30.12,SE,134,9.0,11.0,84,0.00,,,0.52,174.0,meteohub,2013-07-18 14:05:00,
2013-07-18 10:10:00,81.1,75.9,30.12,ESE,109,8.0,11.0,84,0.00,,,0.52,422.0,meteohub,2013-07-18 14:10:00,
2013-07-18 10:15:00,81.3,76.1,30.12,ESE,113,5.0,12.0,84,0.00,,,0.52,359.0,meteohub,2013-07-18 14:15:00,
2013-07-18 10:20:00,81.3,76.1,30.12,SE,137,5.0,12.0,84,0.00,,,0.52,461.0,meteohub,2013-07-18 14:20:00,
2013-07-18 10:25:00,81.3,76.1,30.12,ESE,111,7.0,12.0,84,0.00,,,0.52,360.0,meteohub,2013-07-18 14:25:00,
2013-07-18 10:30:00,81.1,75.9,30.12,SE,125,8.0,12.0,84,0.00,,,0.52,309.0,meteohub,2013-07-18 14:30:00,
2013-07-18 10:35:00,81.1,75.9,30.12,SSE,148,5.0,12.0,84,0.00,,,0.52,308.0,meteohub,2013-07-18 14:35:00,
2013-07-18 10:40:00,81.3,75.7,30.12,East,99,7.0,12.0,83,0.00,,,0.52,316.0,meteohub,2013-07-18 14:40:00,
2013-07-18 10:45:00,81.0,75.7,30.12,SE,134,6.0,12.0,84,0.00,,,0.52,346.0,meteohub,2013-07-18 14:45:00,
2013-07-18 10:52:00,81.0,75.7,30.12,SE,127,4.0,12.0,84,0.00,,,0.52,332.0,meteohub,2013-07-18 14:52:00,
2013-07-18 10:57:00,81.7,76.6,30.12,ENE,71,4.0,12.0,85,0.00,,,0.52,853.0,meteohub,2013-07-18 14:57:00,
2013-07-18 11:02:00,81.5,75.4,30.12,SE,131,5.0,12.0,82,0.00,,,0.52,575.0,meteohub,2013-07-18 15:02:00,
2013-07-18 11:07:00,81.9,76.1,30.12,East,88,5.0,11.0,83,0.00,,,0.52,478.0,meteohub,2013-07-18 15:07:00,
2013-07-18 11:12:00,83.1,76.3,30.12,East,92,6.0,11.0,80,0.00,,,0.52,868.0,meteohub,2013-07-18 15:12:00,
2013-07-18 11:17:00,82.2,75.4,30.12,ESE,112,8.0,13.0,80,0.00,,,0.52,366.0,meteohub,2013-07-18 15:17:00,
2013-07-18 11:22:00,82.6,76.5,30.11,East,96,10.0,13.0,82,0.00,,,0.52,905.0,meteohub,2013-07-18 15:22:00,
2013-07-18 11:27:00,81.9,74.7,30.11,ESE,106,8.0,13.0,79,0.00,,,0.52,905.0,meteohub,2013-07-18 15:27:00,
2013-07-18 11:32:00,82.2,74.7,30.12,ESE,116,10.0,13.0,78,0.00,,,0.52,803.0,meteohub,2013-07-18 15:32:00,
2013-07-18 11:37:00,82.4,74.8,30.12,SE,133,7.0,13.0,78,0.00,,,0.52,594.0,meteohub,2013-07-18 15:37:00,
2013-07-18 11:42:00,82.6,75.4,30.12,East,98,6.0,13.0,79,0.00,,,0.52,689.0,meteohub,2013-07-18 15:42:00,
2013-07-18 11:47:00,82.8,75.9,30.12,ESE,123,8.0,13.0,80,0.00,,,0.52,703.0,meteohub,2013-07-18 15:47:00,
2013-07-18 11:52:00,82.8,75.9,30.12,ESE,109,7.0,13.0,80,0.00,,,0.52,343.0,meteohub,2013-07-18 15:52:00,
2013-07-18 11:57:00,82.0,75.6,30.12,East,92,8.0,11.0,81,0.00,,,0.52,306.0,meteohub,2013-07-18 15:57:00,
2013-07-18 12:02:00,81.3,74.8,30.13,SE,130,7.0,14.0,81,0.00,,,0.52,360.0,meteohub,2013-07-18 16:02:00,
2013-07-18 12:07:00,81.5,75.4,30.13,ESE,110,11.0,14.0,82,0.00,,,0.52,285.0,meteohub,2013-07-18 16:07:00,
2013-07-18 12:12:00,81.3,75.4,30.13,East,96,10.0,14.0,82,0.00,,,0.52,534.0,meteohub,2013-07-18 16:12:00,
2013-07-18 12:17:00,81.7,75.6,30.12,East,82,7.0,13.0,82,0.00,,,0.52,522.0,meteohub,2013-07-18 16:17:00,
2013-07-18 12:22:00,82.2,76.1,30.12,ESE,117,8.0,13.0,82,0.00,,,0.52,557.0,meteohub,2013-07-18 16:22:00,
2013-07-18 12:27:00,82.0,75.6,30.12,ESE,115,5.0,13.0,81,0.00,,,0.52,643.0,meteohub,2013-07-18 16:27:00,
2013-07-18 12:32:00,82.6,75.7,30.12,SE,140,4.0,11.0,80,0.00,,,0.52,807.0,meteohub,2013-07-18 16:32:00,
2013-07-18 12:37:00,83.5,76.3,30.12,East,101,14.0,14.0,79,0.00,,,0.52,629.0,meteohub,2013-07-18 16:37:00,
2013-07-18 12:42:00,82.8,75.9,30.12,ESE,121,10.0,15.0,80,0.00,,,0.52,754.0,meteohub,2013-07-18 16:42:00,
2013-07-18 12:47:00,82.6,76.1,30.12,SE,126,6.0,15.0,81,0.00,,,0.52,686.0,meteohub,2013-07-18 16:47:00,
2013-07-18 12:52:00,82.8,75.9,30.12,ESE,123,5.0,15.0,80,0.00,,,0.52,800.0,meteohub,2013-07-18 16:52:00,
2013-07-18 12:57:00,82.8,75.6,30.12,ESE,115,5.0,15.0,79,0.00,,,0.52,543.0,meteohub,2013-07-18 16:57:00,
2013-07-18 13:02:00,83.1,76.6,30.11,East,90,7.0,13.0,81,0.00,,,0.52,534.0,meteohub,2013-07-18 17:02:00,
2013-07-18 13:07:00,83.5,76.6,30.11,SE,144,2.0,13.0,80,0.00,,,0.52,636.0,meteohub,2013-07-18 17:07:00,
2013-07-18 13:12:00,83.8,76.6,30.11,ESE,113,7.0,10.0,79,0.00,,,0.52,566.0,meteohub,2013-07-18 17:12:00,
2013-07-18 13:17:00,83.7,75.2,30.11,East,101,7.0,10.0,76,0.00,,,0.52,640.0,meteohub,2013-07-18 17:17:00,
2013-07-18 13:22:00,83.8,75.9,30.11,SE,125,7.0,12.0,77,0.00,,,0.52,490.0,meteohub,2013-07-18 17:22:00,
2013-07-18 13:27:00,83.5,75.0,30.11,SE,144,4.0,12.0,76,0.00,,,0.52,513.0,meteohub,2013-07-18 17:27:00,
2013-07-18 13:33:00,83.1,74.8,30.11,ESE,108,9.0,12.0,76,0.00,,,0.52,1079.0,meteohub,2013-07-18 17:33:00,
2013-07-18 13:38:00,84.4,75.9,30.10,ESE,113,7.0,11.0,76,0.00,,,0.52,893.0,meteohub,2013-07-18 17:38:00,
2013-07-18 13:43:00,83.7,76.1,30.10,SE,138,7.0,13.0,78,0.00,,,0.52,424.0,meteohub,2013-07-18 17:43:00,
2013-07-18 13:48:00,83.1,75.9,30.10,SE,140,6.0,13.0,79,0.00,,,0.52,554.0,meteohub,2013-07-18 17:48:00,
2013-07-18 13:53:00,83.7,76.1,30.11,ESE,115,5.0,12.0,78,0.00,,,0.52,575.0,meteohub,2013-07-18 17:53:00,
2013-07-18 13:58:00,84.0,76.5,30.10,SE,142,10.0,12.0,78,0.00,,,0.52,575.0,meteohub,2013-07-18 17:58:00,
2013-07-18 14:03:00,83.8,75.9,30.10,SE,131,7.0,12.0,77,0.00,,,0.52,1032.0,meteohub,2013-07-18 18:03:00,
2013-07-18 14:08:00,84.6,76.5,30.10,East,82,9.0,12.0,77,0.00,,,0.52,935.0,meteohub,2013-07-18 18:08:00,
2013-07-18 14:13:00,84.6,76.1,30.10,ESE,111,8.0,12.0,76,0.00,,,0.52,476.0,meteohub,2013-07-18 18:13:00,
2013-07-18 14:18:00,84.4,75.9,30.10,ESE,105,10.0,15.0,76,0.00,,,0.52,914.0,meteohub,2013-07-18 18:18:00,
2013-07-18 14:23:00,84.7,75.9,30.10,East,92,9.0,15.0,75,0.00,,,0.52,865.0,meteohub,2013-07-18 18:23:00,
2013-07-18 14:28:00,84.6,76.1,30.10,SE,139,6.0,14.0,76,0.00,,,0.52,717.0,meteohub,2013-07-18 18:28:00,
2013-07-18 14:33:00,84.6,76.1,30.09,ESE,105,12.0,14.0,76,0.00,,,0.52,452.0,meteohub,2013-07-18 18:33:00,
2013-07-18 14:38:00,84.2,76.3,30.09,SE,132,11.0,14.0,77,0.00,,,0.52,429.0,meteohub,2013-07-18 18:38:00,
2013-07-18 14:43:00,83.7,76.5,30.09,SE,130,10.0,14.0,79,0.00,,,0.52,397.0,meteohub,2013-07-18 18:43:00,
2013-07-18 14:48:00,83.7,76.5,30.09,SE,144,6.0,15.0,79,0.00,,,0.52,606.0,meteohub,2013-07-18 18:48:00,
2013-07-18 14:53:00,84.4,77.2,30.08,SE,130,5.0,15.0,79,0.00,,,0.52,638.0,meteohub,2013-07-18 18:53:00,
2013-07-18 14:58:00,83.8,76.6,30.08,SSE,158,7.0,15.0,79,0.00,,,0.52,517.0,meteohub,2013-07-18 18:58:00,
2013-07-18 15:03:00,83.8,76.3,30.08,SSE,167,5.0,13.0,78,0.00,,,0.52,478.0,meteohub,2013-07-18 19:03:00,
2013-07-18 15:08:00,83.7,75.7,30.08,SE,130,10.0,14.0,77,0.00,,,0.52,413.0,meteohub,2013-07-18 19:08:00,
2013-07-18 15:13:00,83.5,75.9,30.08,ESE,119,10.0,14.0,78,0.00,,,0.52,362.0,meteohub,2013-07-18 19:13:00,
2013-07-18 15:18:00,83.1,75.9,30.08,SSE,153,5.0,14.0,79,0.00,,,0.52,334.0,meteohub,2013-07-18 19:18:00,
2013-07-18 15:23:00,83.1,75.9,30.08,SE,132,9.0,14.0,79,0.00,,,0.52,315.0,meteohub,2013-07-18 19:23:00,
2013-07-18 15:28:00,83.1,76.3,30.08,ESE,121,11.0,12.0,80,0.00,,,0.52,316.0,meteohub,2013-07-18 19:28:00,
2013-07-18 15:33:00,83.1,75.6,30.08,SE,137,9.0,12.0,78,0.00,,,0.52,295.0,meteohub,2013-07-18 19:33:00,
2013-07-18 15:38:00,82.9,75.7,30.08,SSE,167,4.0,12.0,79,0.00,,,0.52,302.0,meteohub,2013-07-18 19:38:00,
2013-07-18 15:43:00,83.3,76.5,30.08,SE,128,7.0,12.0,80,0.00,,,0.52,265.0,meteohub,2013-07-18 19:43:00,
2013-07-18 15:48:00,83.1,76.3,30.08,SE,132,5.0,11.0,80,0.00,,,0.52,202.0,meteohub,2013-07-18 19:48:00,
2013-07-18 15:54:00,82.9,76.5,30.08,SE,126,6.0,11.0,81,0.00,,,0.52,230.0,meteohub,2013-07-18 19:54:00,
2013-07-18 15:58:00,82.9,76.5,30.08,SSE,163,6.0,11.0,81,0.00,,,0.52,200.0,meteohub,2013-07-18 19:58:00,
2013-07-18 16:03:00,82.9,76.1,30.08,SE,128,8.0,11.0,80,0.00,,,0.52,234.0,meteohub,2013-07-18 20:03:00,
2013-07-18 16:09:00,82.9,76.5,30.08,ESE,120,9.0,11.0,81,0.00,,,0.52,227.0,meteohub,2013-07-18 20:09:00,
2013-07-18 16:14:00,82.9,76.1,30.08,SE,140,8.0,11.0,80,0.00,,,0.52,229.0,meteohub,2013-07-18 20:14:00,
2013-07-18 16:19:00,82.9,76.5,30.08,SE,129,9.0,11.0,81,0.00,,,0.52,236.0,meteohub,2013-07-18 20:19:00,
2013-07-18 16:24:00,82.9,76.1,30.08,SE,145,8.0,10.0,80,0.00,,,0.52,255.0,meteohub,2013-07-18 20:24:00,
2013-07-18 16:29:00,83.1,76.3,30.08,SE,137,7.0,11.0,80,0.00,,,0.52,278.0,meteohub,2013-07-18 20:29:00,
2013-07-18 16:34:00,83.3,76.1,30.07,South,178,6.0,11.0,79,0.00,,,0.52,318.0,meteohub,2013-07-18 20:34:00,
2013-07-18 16:39:00,83.5,75.9,30.07,SSE,153,6.0,10.0,78,0.00,,,0.52,318.0,meteohub,2013-07-18 20:39:00,
2013-07-18 16:44:00,83.1,75.9,30.07,SSE,159,7.0,10.0,79,0.00,,,0.52,271.0,meteohub,2013-07-18 20:44:00,
2013-07-18 16:49:00,83.1,75.9,30.08,SE,137,11.0,11.0,79,0.00,,,0.52,162.0,meteohub,2013-07-18 20:49:00,
2013-07-18 16:54:00,82.9,76.1,30.08,ESE,115,5.0,10.0,80,0.00,,,0.52,188.0,meteohub,2013-07-18 20:54:00,
2013-07-18 16:59:00,82.8,75.9,30.09,SSW,194,7.0,11.0,80,0.00,,,0.52,86.0,meteohub,2013-07-18 20:59:00,
2013-07-18 17:04:00,79.2,71.2,30.10,WSW,248,12.0,12.0,77,0.00,,,0.52,9.0,meteohub,2013-07-18 21:04:00,
2013-07-18 17:09:00,75.9,70.0,30.09,WNW,286,11.0,24.0,82,0.00,,,0.52,16.0,meteohub,2013-07-18 21:09:00,
2013-07-18 17:14:00,74.1,70.0,30.10,SW,220,13.0,24.0,87,0.00,,,0.52,14.0,meteohub,2013-07-18 21:14:00,
2013-07-18 17:19:00,73.4,70.3,30.09,West,259,14.0,24.0,90,0.00,,,0.52,21.0,meteohub,2013-07-18 21:19:00,
2013-07-18 17:24:00,72.9,70.3,30.09,SW,222,4.0,21.0,92,0.00,,,0.52,28.0,meteohub,2013-07-18 21:24:00,
2013-07-18 17:29:00,72.7,70.2,30.09,West,278,6.0,21.0,92,0.00,,,0.52,42.0,meteohub,2013-07-18 21:29:00,
2013-07-18 17:34:00,72.7,70.5,30.09,West,276,10.0,21.0,93,0.00,,,0.52,56.0,meteohub,2013-07-18 21:34:00,
2013-07-18 17:39:00,72.9,71.1,30.09,West,271,9.0,16.0,94,0.00,,,0.52,83.0,meteohub,2013-07-18 21:39:00,
2013-07-18 17:44:00,72.9,70.7,30.09,SW,235,7.0,14.0,93,0.00,,,0.52,72.0,meteohub,2013-07-18 21:44:00,
2013-07-18 17:49:00,72.9,71.1,30.09,SW,222,6.0,12.0,94,0.00,,,0.52,62.0,meteohub,2013-07-18 21:49:00,
2013-07-18 17:54:00,72.9,70.7,30.09,SW,235,4.0,11.0,93,0.01,,,0.53,54.0,meteohub,2013-07-18 21:54:00,
2013-07-18 17:59:00,72.9,71.1,30.09,WSW,250,3.0,11.0,94,0.01,,,0.53,47.0,meteohub,2013-07-18 21:59:00,
2013-07-18 18:04:00,72.9,71.1,30.09,SW,232,3.0,10.0,94,0.01,,,0.53,33.0,meteohub,2013-07-18 22:04:00,
2013-07-18 18:09:00,72.7,70.9,30.09,West,273,4.0,10.0,94,0.01,,,0.53,26.0,meteohub,2013-07-18 22:09:00,
2013-07-18 18:14:00,72.9,71.1,30.08,West,271,3.0,8.0,94,0.01,,,0.53,25.0,meteohub,2013-07-18 22:14:00,
2013-07-18 18:19:00,72.9,71.1,30.08,West,274,2.0,7.0,94,0.01,,,0.53,23.0,meteohub,2013-07-18 22:19:00,
2013-07-18 18:24:00,73.0,71.2,30.08,West,274,0.0,7.0,94,0.01,,,0.53,19.0,meteohub,2013-07-18 22:24:00,
2013-07-18 18:29:00,73.0,71.2,30.08,West,281,0.0,6.0,94,0.01,,,0.53,16.0,meteohub,2013-07-18 22:29:00,
2013-07-18 18:34:00,73.0,71.2,30.09,NW,315,1.0,6.0,94,0.01,,,0.53,14.0,meteohub,2013-07-18 22:34:00,
2013-07-18 18:39:00,73.2,71.1,30.09,WNW,303,2.0,3.0,93,0.01,,,0.53,11.0,meteohub,2013-07-18 22:39:00,
2013-07-18 18:44:00,73.2,71.1,30.09,WNW,303,0.0,3.0,93,0.01,,,0.53,11.0,meteohub,2013-07-18 22:44:00,
2013-07-18 18:49:00,73.4,71.2,30.09,WNW,303,0.0,3.0,93,0.00,,,0.53,11.0,meteohub,2013-07-18 22:49:00,
2013-07-18 18:54:00,73.4,71.2,30.09,WNW,303,0.0,2.0,93,0.01,,,0.54,9.0,meteohub,2013-07-18 22:54:00,
2013-07-18 18:59:00,73.4,71.2,30.10,WNW,303,1.0,2.0,93,0.01,,,0.54,9.0,meteohub,2013-07-18 22:59:00,
2013-07-18 19:04:00,73.2,70.7,30.10,WNW,303,0.0,1.0,92,0.01,,,0.54,9.0,meteohub,2013-07-18 23:04:00,
2013-07-18 19:09:00,73.4,71.2,30.10,WNW,303,0.0,1.0,93,0.01,,,0.54,9.0,meteohub,2013-07-18 23:09:00,
2013-07-18 19:14:00,73.6,71.4,30.10,WNW,303,0.0,1.0,93,0.01,,,0.54,9.0,meteohub,2013-07-18 23:14:00,
2013-07-18 19:20:00,73.0,70.9,30.11,ENE,76,2.0,2.0,93,0.01,,,0.54,9.0,meteohub,2013-07-18 23:20:00,
2013-07-18 19:25:00,73.0,71.2,30.11,East,80,1.0,2.0,94,0.01,,,0.54,7.0,meteohub,2013-07-18 23:25:00,
2013-07-18 19:30:00,73.0,71.2,30.11,East,80,0.0,3.0,94,0.01,,,0.54,7.0,meteohub,2013-07-18 23:30:00,
2013-07-18 19:35:00,73.0,71.2,30.11,East,80,1.0,3.0,94,0.01,,,0.54,5.0,meteohub,2013-07-18 23:35:00,
2013-07-18 19:40:00,73.0,71.2,30.11,East,81,2.0,3.0,94,0.02,,,0.55,5.0,meteohub,2013-07-18 23:40:00,
2013-07-18 19:45:00,73.0,71.2,30.11,East,96,2.0,3.0,94,0.02,,,0.55,0.0,meteohub,2013-07-18 23:45:00,
2013-07-18 19:50:00,72.9,71.1,30.11,East,96,1.0,5.0,94,0.02,,,0.55,0.0,meteohub,2013-07-18 23:50:00,
2013-07-18 19:55:00,72.9,71.4,30.11,East,95,3.0,5.0,95,0.01,,,0.55,0.0,meteohub,2013-07-18 23:55:00,
2013-07-18 20:00:00,72.9,71.4,30.11,East,95,5.0,5.0,95,0.01,,,0.55,0.0,meteohub,2013-07-19 00:00:00,
2013-07-18 20:05:00,72.9,71.4,30.12,East,96,5.0,5.0,95,0.01,,,0.55,0.0,meteohub,2013-07-19 00:05:00,
2013-07-18 20:10:00,72.9,71.4,30.12,ENE,76,4.0,6.0,95,0.01,,,0.55,0.0,meteohub,2013-07-19 00:10:00,
2013-07-18 20:15:00,72.9,71.4,30.12,East,92,5.0,7.0,95,0.01,,,0.55,0.0,meteohub,2013-07-19 00:15:00,
2013-07-18 20:20:00,72.9,71.4,30.12,East,92,5.0,8.0,95,0.02,,,0.56,0.0,meteohub,2013-07-19 00:20:00,
2013-07-18 20:25:00,72.9,71.4,30.12,ESE,105,4.0,8.0,95,0.02,,,0.56,0.0,meteohub,2013-07-19 00:25:00,
2013-07-18 20:30:00,72.7,71.2,30.12,East,93,5.0,8.0,95,0.01,,,0.56,0.0,meteohub,2013-07-19 00:30:00,
2013-07-18 20:35:00,72.7,71.2,30.12,ESE,103,2.0,7.0,95,0.01,,,0.56,0.0,meteohub,2013-07-19 00:35:00,
2013-07-18 20:40:00,72.9,71.4,30.12,East,92,1.0,7.0,95,0.01,,,0.56,0.0,meteohub,2013-07-19 00:40:00,
2013-07-18 20:45:00,72.9,71.4,30.11,East,89,2.0,7.0,95,0.01,,,0.56,0.0,meteohub,2013-07-19 00:45:00,
2013-07-18 20:50:00,72.9,71.6,30.11,ESE,103,4.0,6.0,96,0.01,,,0.56,0.0,meteohub,2013-07-19 00:50:00,
2013-07-18 20:55:00,72.9,71.6,30.11,ESE,109,2.0,6.0,96,0.01,,,0.56,0.0,meteohub,2013-07-19 00:55:00,
2013-07-18 21:00:00,73.0,71.8,30.10,East,101,2.0,7.0,96,0.01,,,0.56,0.0,meteohub,2013-07-19 01:00:00,
2013-07-18 21:05:00,73.0,71.8,30.10,ESE,107,1.0,7.0,96,0.02,,,0.57,0.0,meteohub,2013-07-19 01:05:00,
2013-07-18 21:10:00,73.2,72.0,30.10,ESE,115,3.0,7.0,96,0.02,,,0.57,0.0,meteohub,2013-07-19 01:10:00,
2013-07-18 21:15:00,73.4,72.1,30.09,ESE,115,3.0,5.0,96,0.02,,,0.57,0.0,meteohub,2013-07-19 01:15:00,
2013-07-18 21:20:00,73.6,72.3,30.09,East,98,3.0,5.0,96,0.01,,,0.57,0.0,meteohub,2013-07-19 01:20:00,
2013-07-18 21:25:00,73.6,72.3,30.09,East,98,0.0,5.0,96,0.01,,,0.57,0.0,meteohub,2013-07-19 01:25:00,
2013-07-18 21:30:00,73.8,72.5,30.08,ESE,105,1.0,5.0,96,0.01,,,0.57,0.0,meteohub,2013-07-19 01:30:00,
2013-07-18 21:35:00,73.8,72.5,30.08,East,101,2.0,5.0,96,0.01,,,0.57,0.0,meteohub,2013-07-19 01:35:00,
2013-07-18 21:40:00,73.8,72.5,30.08,East,101,1.0,4.0,96,0.02,,,0.58,0.0,meteohub,2013-07-19 01:40:00,
2013-07-18 21:45:00,73.8,72.5,30.07,East,101,0.0,3.0,96,0.02,,,0.58,0.0,meteohub,2013-07-19 01:45:00,
2013-07-18 21:50:00,73.9,72.7,30.08,East,101,0.0,3.0,96,0.02,,,0.58,0.0,meteohub,2013-07-19 01:50:00,
2013-07-18 21:56:00,73.9,72.7,30.08,East,101,0.0,2.0,96,0.02,,,0.58,0.0,meteohub,2013-07-19 01:56:00,
2013-07-18 22:01:00,73.9,72.7,30.07,East,101,0.0,2.0,96,0.01,,,0.58,0.0,meteohub,2013-07-19 02:01:00,
2013-07-18 22:06:00,74.1,72.9,30.07,East,101,0.0,0.0,96,0.01,,,0.58,0.0,meteohub,2013-07-19 02:06:00,
2013-07-18 22:11:00,74.3,73.0,30.07,East,101,0.0,0.0,96,0.01,,,0.58,0.0,meteohub,2013-07-19 02:11:00,
2013-07-18 22:16:00,74.5,73.6,30.08,East,101,1.0,1.0,97,0.02,,,0.59,0.0,meteohub,2013-07-19 02:16:00,
2013-07-18 22:21:00,74.5,73.6,30.08,East,101,0.0,2.0,97,0.02,,,0.59,0.0,meteohub,2013-07-19 02:21:00,
2013-07-18 22:26:00,74.5,73.2,30.08,East,101,0.0,2.0,96,0.02,,,0.59,0.0,meteohub,2013-07-19 02:26:00,
2013-07-18 22:31:00,74.5,73.6,30.08,East,101,0.0,2.0,97,0.02,,,0.59,0.0,meteohub,2013-07-19 02:31:00,
2013-07-18 22:36:00,74.3,73.0,30.08,East,101,0.0,1.0,96,0.02,,,0.59,0.0,meteohub,2013-07-19 02:36:00,
2013-07-18 22:41:00,74.5,73.6,30.08,East,101,0.0,1.0,97,0.01,,,0.59,0.0,meteohub,2013-07-19 02:41:00,
2013-07-18 22:46:00,74.5,73.6,30.08,East,101,0.0,0.0,97,0.02,,,0.60,0.0,meteohub,2013-07-19 02:46:00,
2013-07-18 22:51:00,74.5,73.6,30.08,East,101,0.0,0.0,97,0.02,,,0.60,0.0,meteohub,2013-07-19 02:51:00,
2013-07-18 22:56:00,74.3,73.4,30.08,East,101,0.0,0.0,97,0.02,,,0.60,0.0,meteohub,2013-07-19 02:56:00,
2013-07-18 23:01:00,74.5,73.6,30.08,East,101,0.0,0.0,97,0.02,,,0.60,0.0,meteohub,2013-07-19 03:01:00,
2013-07-18 23:06:00,74.5,73.6,30.08,East,101,0.0,0.0,97,0.02,,,0.60,0.0,meteohub,2013-07-19 03:06:00,
2013-07-18 23:11:00,74.5,73.6,30.08,East,101,0.0,0.0,97,0.02,,,0.60,0.0,meteohub,2013-07-19 03:11:00,
2013-07-18 23:16:00,74.5,73.6,30.08,East,101,0.0,0.0,97,0.02,,,0.61,0.0,meteohub,2013-07-19 03:16:00,
2013-07-18 23:21:00,74.5,73.6,30.08,East,101,1.0,0.0,97,0.02,,,0.61,0.0,meteohub,2013-07-19 03:21:00,
2013-07-18 23:26:00,74.7,73.8,30.09,East,101,0.0,2.0,97,0.02,,,0.61,0.0,meteohub,2013-07-19 03:26:00,
2013-07-18 23:31:00,74.7,73.8,30.09,East,101,0.0,2.0,97,0.02,,,0.61,0.0,meteohub,2013-07-19 03:31:00,
2013-07-18 23:36:00,74.7,73.8,30.09,East,101,0.0,2.0,97,0.02,,,0.61,0.0,meteohub,2013-07-19 03:36:00,
2013-07-18 23:41:00,74.7,73.8,30.09,East,101,0.0,0.0,97,0.02,,,0.61,0.0,meteohub,2013-07-19 03:41:00,
2013-07-18 23:46:00,74.7,73.8,30.09,East,101,1.0,0.0,97,0.02,,,0.62,0.0,meteohub,2013-07-19 03:46:00,
2013-07-18 23:51:00,74.7,73.8,30.10,East,101,0.0,2.0,97,0.02,,,0.62,0.0,meteohub,2013-07-19 03:51:00,
2013-07-18 23:56:00,74.7,73.8,30.10,East,101,0.0,2.0,97,0.02,,,0.62,0.0,meteohub,2013-07-19 03:56:00,